Time;durP1;ratioP1;P1;durP2;ratioP2;P2;SDS_P1;SDS_P2;PMS_P1;PMS_P2;Temp;Humidity;BMP_temperature;BMP_pressure;BME280_temperature;BME280_humidity;BME280_pressure;Samples;Min_cycle;Max_cycle;Signal;HPM_P1;HPM_P2
2023/10/11 00:00:37;;;;;;;;;;;17.20;96.70;;;;;;5116597;27;19912;-72
2023/10/11 00:03:17;;;;;;;;;;;17.20;96.80;;;;;;5104474;27;20030;-72
2023/10/11 00:05:46;;;;;;;;;;;17.20;96.70;;;;;;5108772;27;19916;-72
2023/10/11 00:08:13;;;;;;;;;;;17.20;96.70;;;;;;5130421;27;19922;-72
2023/10/11 00:10:46;;;;;;;;;;;17.20;97.10;;;;;;5122403;27;20371;-72
2023/10/11 00:13:15;;;;;;;;;;;17.30;97.10;;;;;;5121158;27;19918;-72
2023/10/11 00:15:48;;;;;;;;;;;17.20;96.80;;;;;;5121905;27;20547;-72
2023/10/11 00:18:14;;;;;;;;;;;17.30;96.80;;;;;;5110370;27;19994;-72
2023/10/11 00:23:05;;;;;;;;;;;17.20;96.80;;;;;;5109735;28;19951;-72
2023/10/11 00:25:30;;;;;;;;;;;17.20;96.80;;;;;;5115921;27;20370;-72
2023/10/11 00:27:59;;;;;;;;;;;17.20;96.80;;;;;;5109339;27;19945;-72
2023/10/11 00:30:26;;;;;;;;;;;17.20;96.80;;;;;;5123839;27;19907;-72
2023/10/11 00:32:52;;;;;;;;;;;17.20;96.70;;;;;;5112771;27;19961;-72
2023/10/11 00:35:18;;;;;;;;;;;17.20;96.70;;;;;;5113662;27;19918;-71
2023/10/11 00:37:49;;;;;;;;;;;17.20;96.70;;;;;;5122420;27;19947;-72
2023/10/11 00:40:25;;;;;;;;;;;17.20;96.70;;;;;;5121924;27;19965;-72
2023/10/11 00:42:57;;;;;;;;;;;17.20;96.80;;;;;;5111327;27;19915;-72
2023/10/11 00:45:23;;;;;;;;;;;17.20;96.80;;;;;;5129894;27;19911;-72
2023/10/11 00:47:53;;;;;;;;;;;17.10;96.80;;;;;;5111212;27;19981;-72
2023/10/11 00:50:21;;;;;;;;;;;17.10;96.80;;;;;;5117321;27;19950;-72
2023/10/11 00:52:48;;;;;;;;;;;17.10;96.80;;;;;;5116397;27;19960;-72
2023/10/11 00:55:22;;;;;;;;;;;17.10;97.00;;;;;;5129456;27;19919;-72
2023/10/11 00:57:48;;;;;;;;;;;17.10;96.80;;;;;;5113032;27;19912;-71
2023/10/11 01:00:16;;;;;;;;;;;17.20;96.80;;;;;;5112947;27;19911;-72
2023/10/11 01:02:45;;;;;;;;;;;17.10;96.70;;;;;;5121054;27;19965;-72
2023/10/11 01:05:11;;;;;;;;;;;17.10;97.10;;;;;;5117308;27;19912;-72
2023/10/11 01:07:40;;;;;;;;;;;17.10;96.80;;;;;;5124426;27;19915;-72
2023/10/11 01:10:06;;;;;;;;;;;17.10;96.70;;;;;;5117841;27;19994;-72
2023/10/11 01:12:32;;;;;;;;;;;17.10;96.80;;;;;;5117322;27;19995;-72
2023/10/11 01:14:58;;;;;;;;;;;17.10;96.70;;;;;;5106924;28;19908;-72
2023/10/11 01:17:25;;;;;;;;;;;17.10;96.70;;;;;;5108889;28;19911;-71
2023/10/11 01:19:52;;;;;;;;;;;17.10;96.70;;;;;;5117209;27;20291;-72
2023/10/11 01:22:20;;;;;;;;;;;17.10;96.80;;;;;;5108780;28;19919;-72
2023/10/11 01:24:47;;;;;;;;;;;17.10;96.80;;;;;;5114046;27;19916;-72
2023/10/11 01:27:13;;;;;;;;;;;17.10;96.90;;;;;;5106669;28;20419;-72
2023/10/11 01:29:40;;;;;;;;;;;17.00;96.70;;;;;;5108942;28;19908;-72
2023/10/11 01:32:06;;;;;;;;;;;17.10;96.80;;;;;;5108807;28;19912;-72
2023/10/11 01:34:32;;;;;;;;;;;17.00;96.80;;;;;;5114478;27;19912;-71
2023/10/11 01:36:58;;;;;;;;;;;17.00;96.80;;;;;;5108559;28;19918;-72
2023/10/11 01:39:23;;;;;;;;;;;17.10;96.80;;;;;;5112884;27;20006;-72
2023/10/11 01:41:49;;;;;;;;;;;17.00;96.80;;;;;;5111881;27;20313;-72
2023/10/11 01:44:15;;;;;;;;;;;17.00;96.70;;;;;;5099803;28;20419;-72
2023/10/11 01:46:40;;;;;;;;;;;17.00;96.70;;;;;;5108376;28;19919;-71
2023/10/11 01:49:07;;;;;;;;;;;17.00;96.80;;;;;;5118594;28;19915;-72
2023/10/11 01:51:38;;;;;;;;;;;17.00;96.70;;;;;;5120516;27;19911;-72
2023/10/11 01:54:04;;;;;;;;;;;17.00;96.70;;;;;;5128534;27;19917;-72
2023/10/11 01:56:30;;;;;;;;;;;17.00;96.70;;;;;;5129013;27;19908;-72
2023/10/11 01:58:56;;;;;;;;;;;17.00;96.70;;;;;;5127895;27;19908;-71
2023/10/11 02:01:25;;;;;;;;;;;17.00;96.70;;;;;;5117476;28;19918;-72
2023/10/11 02:03:53;;;;;;;;;;;17.00;96.60;;;;;;5116653;27;20036;-72
2023/10/11 02:06:23;;;;;;;;;;;17.00;96.70;;;;;;5108385;28;19915;-72
2023/10/11 02:08:48;;;;;;;;;;;17.00;96.70;;;;;;5116678;27;19911;-72
2023/10/11 02:11:14;;;;;;;;;;;17.00;96.60;;;;;;5120207;27;20362;-72
2023/10/11 02:13:42;;;;;;;;;;;17.00;96.60;;;;;;5128750;27;20451;-72
2023/10/11 02:16:11;;;;;;;;;;;17.00;96.60;;;;;;5111370;27;19919;-72
2023/10/11 02:18:37;;;;;;;;;;;17.00;96.60;;;;;;5122286;27;20014;-71
2023/10/11 02:21:06;;;;;;;;;;;17.00;96.60;;;;;;5118682;28;19915;-72
2023/10/11 02:23:39;;;;;;;;;;;17.00;96.60;;;;;;5114682;27;19923;-72
2023/10/11 02:26:05;;;;;;;;;;;17.00;96.60;;;;;;5107696;27;19915;-71
2023/10/11 02:28:30;;;;;;;;;;;17.00;96.90;;;;;;5120328;27;19923;-71
2023/10/11 02:30:56;;;;;;;;;;;17.00;96.60;;;;;;5109805;27;19907;-71
2023/10/11 02:33:22;;;;;;;;;;;16.90;96.70;;;;;;5109517;27;19911;-72
2023/10/11 02:35:56;;;;;;;;;;;17.00;96.70;;;;;;5125532;27;20344;-72
2023/10/11 02:38:23;;;;;;;;;;;16.90;96.60;;;;;;5126897;27;19912;-72
2023/10/11 02:40:55;;;;;;;;;;;17.00;96.70;;;;;;5129004;27;19912;-72
2023/10/11 02:43:22;;;;;;;;;;;16.90;96.70;;;;;;5104545;28;19980;-72
2023/10/11 02:45:47;;;;;;;;;;;16.90;96.70;;;;;;5111982;28;19919;-72
2023/10/11 02:48:18;;;;;;;;;;;16.90;96.70;;;;;;5118718;27;19919;-72
2023/10/11 02:50:46;;;;;;;;;;;16.90;96.70;;;;;;5128334;27;19911;-72
2023/10/11 02:53:21;;;;;;;;;;;16.90;96.70;;;;;;5119249;27;19912;-72
2023/10/11 02:55:59;;;;;;;;;;;16.90;96.70;;;;;;5111782;27;19916;-72
2023/10/11 02:58:29;;;;;;;;;;;16.90;96.70;;;;;;5124158;27;19912;-72
2023/10/11 03:01:05;;;;;;;;;;;16.90;96.60;;;;;;5117795;27;19919;-72
2023/10/11 03:03:31;;;;;;;;;;;16.90;96.60;;;;;;5117881;27;19998;-72
2023/10/11 03:05:56;;;;;;;;;;;16.90;96.60;;;;;;5120418;27;20019;-72
2023/10/11 03:08:26;;;;;;;;;;;16.90;96.70;;;;;;5127645;27;19961;-72
2023/10/11 03:10:58;;;;;;;;;;;16.90;96.70;;;;;;5111401;28;20029;-72
2023/10/11 03:13:25;;;;;;;;;;;16.80;96.60;;;;;;5123587;27;19907;-72
2023/10/11 03:15:55;;;;;;;;;;;16.90;96.60;;;;;;5120807;27;19918;-71
2023/10/11 03:18:25;;;;;;;;;;;16.90;96.60;;;;;;5116294;27;19918;-72
2023/10/11 03:20:58;;;;;;;;;;;16.80;96.60;;;;;;5120014;27;19953;-72
2023/10/11 03:23:27;;;;;;;;;;;16.80;96.60;;;;;;5131881;27;19907;-71
2023/10/11 03:25:53;;;;;;;;;;;16.90;96.60;;;;;;5128586;27;20389;-72
2023/10/11 03:28:26;;;;;;;;;;;16.90;96.70;;;;;;5123639;27;20511;-71
2023/10/11 03:30:53;;;;;;;;;;;16.80;96.60;;;;;;5114505;27;19937;-71
2023/10/11 03:33:18;;;;;;;;;;;16.80;96.70;;;;;;5119449;27;19912;-72
2023/10/11 03:35:45;;;;;;;;;;;16.80;96.60;;;;;;5110883;28;20310;-72
2023/10/11 03:38:17;;;;;;;;;;;16.80;96.60;;;;;;5119293;27;19912;-72
2023/10/11 03:40:55;;;;;;;;;;;16.80;96.60;;;;;;5118321;27;19950;-72
2023/10/11 03:43:21;;;;;;;;;;;16.70;96.50;;;;;;5127300;27;19912;-71
2023/10/11 03:45:50;;;;;;;;;;;16.80;96.60;;;;;;5127063;27;19911;-71
2023/10/11 03:48:16;;;;;;;;;;;16.80;96.60;;;;;;5127173;27;19915;-71
2023/10/11 03:50:47;;;;;;;;;;;16.70;96.60;;;;;;5118116;27;20026;-72
2023/10/11 03:53:15;;;;;;;;;;;16.70;96.60;;;;;;5119724;27;19943;-71
2023/10/11 03:55:47;;;;;;;;;;;16.70;96.60;;;;;;5117417;27;19995;-72
2023/10/11 04:01:11;;;;;;;;;;;16.80;96.60;;;;;;5118974;27;19972;-72
2023/10/11 04:03:39;;;;;;;;;;;16.70;96.60;;;;;;5113105;27;20364;-72
2023/10/11 04:06:13;;;;;;;;;;;16.70;96.70;;;;;;5119102;27;19908;-71
2023/10/11 04:08:56;;;;;;;;;;;16.70;96.70;;;;;;5130942;27;19915;-72
2023/10/11 04:11:30;;;;;;;;;;;16.70;96.60;;;;;;5102761;28;19918;-71
2023/10/11 04:13:57;;;;;;;;;;;16.70;96.70;;;;;;5118450;27;19961;-72
2023/10/11 04:16:23;;;;;;;;;;;16.70;96.80;;;;;;5118724;27;19912;-71
2023/10/11 04:18:52;;;;;;;;;;;16.70;96.60;;;;;;5118433;27;19919;-71
2023/10/11 04:23:55;;;;;;;;;;;16.60;96.60;;;;;;5118726;27;19915;-71
2023/10/11 04:26:37;;;;;;;;;;;16.60;96.60;;;;;;5100561;28;19912;-71
2023/10/11 04:29:18;;;;;;;;;;;16.70;96.70;;;;;;5122700;27;20044;-71
2023/10/11 04:34:31;;;;;;;;;;;16.60;96.70;;;;;;5108791;27;19918;-72
2023/10/11 04:36:59;;;;;;;;;;;16.60;96.70;;;;;;5112326;27;20389;-71
2023/10/11 04:39:28;;;;;;;;;;;16.60;96.70;;;;;;5114488;27;20232;-71
2023/10/11 04:41:56;;;;;;;;;;;16.60;96.70;;;;;;5121906;27;20008;-71
2023/10/11 04:44:22;;;;;;;;;;;16.60;96.70;;;;;;5130243;27;19918;-72
2023/10/11 04:46:57;;;;;;;;;;;16.60;96.50;;;;;;5121222;27;20006;-71
2023/10/11 04:49:30;;;;;;;;;;;16.60;96.60;;;;;;5106795;27;19958;-71
2023/10/11 04:51:56;;;;;;;;;;;16.60;96.50;;;;;;5120654;27;19912;-71
2023/10/11 04:54:42;;;;;;;;;;;16.50;96.50;;;;;;5117527;27;19911;-72
2023/10/11 04:57:07;;;;;;;;;;;16.50;96.40;;;;;;5117739;27;20475;-72
2023/10/11 05:02:02;;;;;;;;;;;16.50;96.40;;;;;;5128550;27;19907;-72
2023/10/11 05:04:30;;;;;;;;;;;16.60;96.40;;;;;;5110135;27;19911;-72
2023/10/11 05:06:55;;;;;;;;;;;16.50;96.50;;;;;;5126204;27;19918;-71
2023/10/11 05:09:29;;;;;;;;;;;16.60;96.50;;;;;;5113284;28;19915;-71
2023/10/11 05:12:10;;;;;;;;;;;16.50;96.50;;;;;;5119873;27;19908;-71
2023/10/11 05:19:40;;;;;;;;;;;16.50;96.50;;;;;;5129920;27;20617;-71
2023/10/11 05:22:08;;;;;;;;;;;16.50;96.50;;;;;;5119194;27;19912;-71
2023/10/11 05:25:12;;;;;;;;;;;16.50;96.50;;;;;;5114957;27;19916;-71
2023/10/11 05:30:13;;;;;;;;;;;16.50;96.10;;;;;;5117629;28;19931;-72
2023/10/11 05:32:49;;;;;;;;;;;16.50;96.70;;;;;;5107645;28;20010;-71
2023/10/11 05:51:32;;;;;;;;;;;16.40;96.40;;;;;;5102794;28;20044;-72
2023/10/11 05:54:02;;;;;;;;;;;16.40;96.30;;;;;;5108711;28;19916;-72
2023/10/11 05:56:33;;;;;;;;;;;16.40;96.30;;;;;;5108841;28;19911;-72
2023/10/11 05:59:03;;;;;;;;;;;16.40;96.20;;;;;;5109524;28;19908;-71
2023/10/11 06:01:30;;;;;;;;;;;16.40;96.40;;;;;;5128043;27;20348;-71
2023/10/11 06:03:56;;;;;;;;;;;16.40;96.30;;;;;;5110830;28;20394;-71
2023/10/11 06:06:57;;;;;;;;;;;16.40;96.30;;;;;;5125412;27;19915;-71
2023/10/11 06:09:17;;;;;;;;;;;16.40;96.40;;;;;;5097986;28;19923;-72
2023/10/11 06:11:49;;;;;;;;;;;16.40;96.40;;;;;;5119137;27;19951;-72
2023/10/11 06:14:17;;;;;;;;;;;16.40;96.30;;;;;;5112516;27;19919;-72
2023/10/11 06:16:43;;;;;;;;;;;16.40;96.30;;;;;;5112606;28;19969;-72
2023/10/11 06:19:18;;;;;;;;;;;16.40;96.30;;;;;;5129246;27;19977;-72
2023/10/11 06:21:56;;;;;;;;;;;16.40;96.20;;;;;;5118691;27;19919;-72
2023/10/11 06:24:22;;;;;;;;;;;16.40;96.10;;;;;;5113043;27;20009;-72
2023/10/11 06:29:22;;;;;;;;;;;16.40;96.30;;;;;;5123099;27;19957;-72
2023/10/11 06:31:49;;;;;;;;;;;16.40;96.20;;;;;;5132887;27;20548;-72
2023/10/11 06:34:15;;;;;;;;;;;16.40;96.20;;;;;;5121867;27;19915;-72
2023/10/11 06:36:42;;;;;;;;;;;16.40;96.20;;;;;;5127798;27;19912;-71
2023/10/11 06:39:33;;;;;;;;;;;16.40;96.20;;;;;;5113322;27;19926;-72
2023/10/11 06:41:53;;;;;;;;;;;16.40;96.20;;;;;;5111871;28;19911;-72
2023/10/11 06:44:18;;;;;;;;;;;16.50;96.20;;;;;;5111666;28;19911;-72
2023/10/11 06:46:47;;;;;;;;;;;16.40;96.30;;;;;;5120372;27;20634;-72
2023/10/11 06:49:14;;;;;;;;;;;16.40;96.20;;;;;;5112732;27;19916;-72
2023/10/11 06:51:41;;;;;;;;;;;16.50;96.20;;;;;;5126149;27;20437;-72
2023/10/11 06:54:07;;;;;;;;;;;16.40;96.20;;;;;;5111952;27;19912;-72
2023/10/11 06:56:32;;;;;;;;;;;16.50;96.20;;;;;;5132328;27;20320;-72
2023/10/11 06:59:00;;;;;;;;;;;16.40;96.10;;;;;;5115128;27;19908;-72
2023/10/11 07:01:30;;;;;;;;;;;16.40;96.10;;;;;;5127786;27;19918;-72
2023/10/11 07:03:57;;;;;;;;;;;16.40;96.10;;;;;;5110136;27;19972;-72
2023/10/11 07:06:22;;;;;;;;;;;16.50;96.10;;;;;;5111346;28;20363;-73
2023/10/11 07:08:53;;;;;;;;;;;16.50;96.10;;;;;;5117784;27;19918;-72
2023/10/11 07:14:25;;;;;;;;;;;16.50;95.90;;;;;;5099138;27;19912;-72
2023/10/11 07:16:50;;;;;;;;;;;16.50;96.00;;;;;;5119904;27;20359;-72
2023/10/11 07:19:16;;;;;;;;;;;16.50;96.00;;;;;;5111311;28;19919;-72
2023/10/11 07:24:32;;;;;;;;;;;16.60;95.80;;;;;;5111355;28;20384;-72
2023/10/11 07:27:07;;;;;;;;;;;16.50;95.90;;;;;;5116410;27;20022;-72
2023/10/11 07:29:35;;;;;;;;;;;16.60;95.90;;;;;;5116489;27;20006;-72
2023/10/11 07:32:00;;;;;;;;;;;16.60;95.80;;;;;;5131226;27;20297;-71
2023/10/11 07:34:27;;;;;;;;;;;16.60;95.90;;;;;;5118622;27;19911;-72
2023/10/11 07:36:52;;;;;;;;;;;16.60;95.80;;;;;;5119764;27;19911;-72
2023/10/11 07:41:51;;;;;;;;;;;16.60;95.50;;;;;;5118951;27;19915;-72
2023/10/11 07:44:18;;;;;;;;;;;16.70;95.50;;;;;;5114052;27;19911;-71
2023/10/11 07:46:47;;;;;;;;;;;16.70;95.30;;;;;;5115857;27;19919;-72
2023/10/11 07:49:22;;;;;;;;;;;16.70;95.20;;;;;;5110443;28;19916;-72
2023/10/11 07:51:52;;;;;;;;;;;16.70;95.20;;;;;;5118784;27;20368;-72
2023/10/11 07:54:21;;;;;;;;;;;16.80;95.20;;;;;;5117626;27;19912;-72
2023/10/11 07:56:57;;;;;;;;;;;16.80;95.00;;;;;;5109136;27;20053;-72
2023/10/11 07:59:26;;;;;;;;;;;16.80;95.00;;;;;;5117753;27;19920;-73
2023/10/11 08:01:56;;;;;;;;;;;16.80;94.90;;;;;;5110660;27;20378;-72
2023/10/11 08:04:22;;;;;;;;;;;16.90;95.00;;;;;;5110548;28;19919;-71
2023/10/11 08:06:59;;;;;;;;;;;16.90;95.10;;;;;;5117635;27;19912;-72
2023/10/11 08:10:29;;;;;;;;;;;16.90;94.70;;;;;;5118999;27;19911;-72
2023/10/11 08:12:23;;;;;;;;;;;17.00;94.90;;;;;;5111115;27;19912;-72
2023/10/11 08:14:53;;;;;;;;;;;17.00;95.00;;;;;;5121845;27;19960;-72
2023/10/11 08:17:22;;;;;;;;;;;17.00;94.90;;;;;;5109993;28;19933;-72
2023/10/11 08:19:51;;;;;;;;;;;17.00;95.00;;;;;;5110391;28;19911;-72
2023/10/11 08:22:16;;;;;;;;;;;17.10;94.90;;;;;;5109751;28;20614;-72
2023/10/11 08:24:56;;;;;;;;;;;17.10;94.60;;;;;;5125104;27;19958;-72
2023/10/11 08:27:28;;;;;;;;;;;17.10;94.70;;;;;;5101403;28;19932;-72
2023/10/11 08:30:05;;;;;;;;;;;17.10;94.70;;;;;;5109561;28;19907;-72
2023/10/11 08:32:37;;;;;;;;;;;17.20;94.30;;;;;;5102099;28;20370;-73
2023/10/11 08:35:06;;;;;;;;;;;17.20;94.50;;;;;;5118584;27;19911;-72
2023/10/11 08:37:32;;;;;;;;;;;17.20;94.50;;;;;;5115000;27;19915;-72
2023/10/11 08:39:58;;;;;;;;;;;17.30;94.40;;;;;;5121710;27;19998;-72
2023/10/11 08:42:30;;;;;;;;;;;17.30;94.40;;;;;;5118600;27;19944;-72
2023/10/11 08:44:59;;;;;;;;;;;17.30;94.40;;;;;;5108371;28;19962;-71
2023/10/11 08:47:24;;;;;;;;;;;17.30;94.50;;;;;;5113905;27;19917;-72
2023/10/11 08:49:50;;;;;;;;;;;17.40;94.40;;;;;;5121781;27;19994;-72
2023/10/11 08:52:19;;;;;;;;;;;17.40;94.50;;;;;;5118146;27;19916;-72
2023/10/11 08:54:45;;;;;;;;;;;17.40;94.30;;;;;;5115128;27;19976;-72
2023/10/11 08:57:13;;;;;;;;;;;17.50;94.40;;;;;;5126348;27;19951;-72
2023/10/11 08:59:49;;;;;;;;;;;17.50;94.30;;;;;;5122926;27;19919;-72
2023/10/11 09:02:17;;;;;;;;;;;17.50;94.20;;;;;;5109998;27;20337;-72
2023/10/11 09:05:06;;;;;;;;;;;17.60;94.20;;;;;;5117025;27;19964;-72
2023/10/11 09:07:48;;;;;;;;;;;17.60;94.10;;;;;;5116466;27;19943;-72
2023/10/11 09:10:27;;;;;;;;;;;17.60;94.10;;;;;;5117642;27;19973;-72
2023/10/11 09:12:56;;;;;;;;;;;17.60;94.00;;;;;;5107697;28;19922;-72
2023/10/11 09:15:43;;;;;;;;;;;17.70;94.10;;;;;;5109079;27;19912;-73
2023/10/11 09:18:12;;;;;;;;;;;17.70;93.90;;;;;;5118935;27;19908;-73
2023/10/11 09:20:40;;;;;;;;;;;17.70;93.90;;;;;;5115690;27;19912;-72
2023/10/11 09:23:06;;;;;;;;;;;17.70;94.00;;;;;;5109501;27;19922;-71
2023/10/11 09:25:41;;;;;;;;;;;17.80;93.90;;;;;;5112567;27;19916;-73
2023/10/11 09:28:15;;;;;;;;;;;17.80;93.90;;;;;;5115438;27;20004;-72
2023/10/11 09:30:44;;;;;;;;;;;17.90;93.90;;;;;;5109141;28;20326;-72
2023/10/11 09:33:16;;;;;;;;;;;17.90;93.80;;;;;;5117566;27;19915;-73
2023/10/11 09:35:48;;;;;;;;;;;17.90;93.80;;;;;;5103962;28;19918;-72
2023/10/11 09:38:19;;;;;;;;;;;17.90;93.80;;;;;;5127326;27;19915;-72
2023/10/11 09:40:45;;;;;;;;;;;18.00;93.50;;;;;;5122793;27;19996;-72
2023/10/11 09:43:13;;;;;;;;;;;18.00;93.50;;;;;;5125705;28;19952;-72
2023/10/11 09:45:42;;;;;;;;;;;18.10;93.60;;;;;;5120549;27;20292;-72
2023/10/11 09:48:09;;;;;;;;;;;18.10;93.70;;;;;;5120901;27;19960;-72
2023/10/11 09:50:40;;;;;;;;;;;18.10;93.40;;;;;;5126707;27;19908;-71
2023/10/11 09:53:07;;;;;;;;;;;18.20;93.60;;;;;;5115203;27;19918;-73
2023/10/11 09:55:35;;;;;;;;;;;18.20;93.50;;;;;;5118022;27;19912;-72
2023/10/11 09:58:04;;;;;;;;;;;18.20;93.50;;;;;;5124358;27;20284;-72
2023/10/11 10:00:42;;;;;;;;;;;18.20;93.40;;;;;;5117360;27;19948;-72
2023/10/11 10:03:13;;;;;;;;;;;18.30;93.40;;;;;;5113006;27;19993;-72
2023/10/11 10:06:00;;;;;;;;;;;18.30;93.30;;;;;;5117233;27;19938;-72
2023/10/11 10:08:28;;;;;;;;;;;18.40;93.30;;;;;;5095110;27;19912;-72
2023/10/11 10:10:54;;;;;;;;;;;18.40;93.50;;;;;;5122968;27;19969;-72
2023/10/11 10:13:24;;;;;;;;;;;18.40;93.30;;;;;;5120753;27;19969;-72
2023/10/11 10:15:52;;;;;;;;;;;18.40;93.30;;;;;;5113131;28;19919;-72
2023/10/11 10:18:19;;;;;;;;;;;18.50;93.50;;;;;;5113171;28;19942;-71
2023/10/11 10:20:46;;;;;;;;;;;18.50;93.40;;;;;;5119221;27;20321;-72
2023/10/11 10:23:14;;;;;;;;;;;18.60;93.30;;;;;;5116510;27;20010;-72
2023/10/11 10:25:45;;;;;;;;;;;18.60;93.10;;;;;;5117042;27;19963;-72
2023/10/11 10:28:31;;;;;;;;;;;18.70;93.10;;;;;;5118637;27;20006;-72
2023/10/11 10:31:09;;;;;;;;;;;18.70;93.40;;;;;;5110843;28;19971;-72
2023/10/11 10:33:35;;;;;;;;;;;18.80;93.30;;;;;;5117490;27;19908;-72
2023/10/11 10:36:16;;;;;;;;;;;18.80;93.30;;;;;;5120963;27;20294;-72
2023/10/11 10:38:59;;;;;;;;;;;18.80;93.20;;;;;;5126690;27;20268;-72
2023/10/11 10:41:26;;;;;;;;;;;18.70;93.20;;;;;;5120854;27;19954;-72
2023/10/11 10:44:05;;;;;;;;;;;18.80;93.40;;;;;;5120127;27;19908;-72
2023/10/11 10:46:31;;;;;;;;;;;18.80;93.30;;;;;;5127700;27;20621;-72
2023/10/11 10:48:56;;;;;;;;;;;18.80;93.30;;;;;;5119419;27;20699;-72
2023/10/11 10:51:25;;;;;;;;;;;18.90;93.20;;;;;;5128890;27;19947;-72
2023/10/11 10:53:51;;;;;;;;;;;18.90;93.20;;;;;;5119469;27;19911;-72
2023/10/11 10:56:26;;;;;;;;;;;19.00;93.30;;;;;;5119955;27;19918;-72
2023/10/11 10:59:12;;;;;;;;;;;19.00;93.20;;;;;;5120303;27;20403;-72
2023/10/11 11:01:38;;;;;;;;;;;19.00;93.10;;;;;;5119979;27;19937;-72
2023/10/11 11:04:07;;;;;;;;;;;19.00;93.00;;;;;;5114298;27;19965;-72
2023/10/11 11:06:37;;;;;;;;;;;19.10;93.10;;;;;;5122502;27;20411;-72
2023/10/11 11:09:04;;;;;;;;;;;19.20;93.10;;;;;;5122704;27;19915;-73
2023/10/11 11:11:34;;;;;;;;;;;19.20;92.90;;;;;;5124610;27;19907;-72
2023/10/11 11:14:08;;;;;;;;;;;19.20;93.00;;;;;;5122965;27;20407;-72
2023/10/11 11:16:38;;;;;;;;;;;19.30;92.90;;;;;;5111287;28;20002;-72
2023/10/11 11:19:11;;;;;;;;;;;19.30;93.00;;;;;;5111750;27;19957;-73
2023/10/11 11:21:44;;;;;;;;;;;19.40;93.00;;;;;;5132212;27;19915;-72
2023/10/11 11:24:34;;;;;;;;;;;19.40;93.00;;;;;;5119974;27;19911;-72
2023/10/11 11:27:06;;;;;;;;;;;19.50;93.00;;;;;;5110146;28;20257;-71
2023/10/11 11:29:32;;;;;;;;;;;19.50;93.00;;;;;;5112647;27;20383;-71
2023/10/11 11:31:59;;;;;;;;;;;19.50;93.00;;;;;;5111704;28;19911;-71
2023/10/11 11:34:28;;;;;;;;;;;19.60;92.80;;;;;;5111882;27;20626;-72
2023/10/11 11:36:54;;;;;;;;;;;19.60;92.50;;;;;;5111722;28;19912;-71
2023/10/11 11:39:36;;;;;;;;;;;19.70;93.00;;;;;;5121530;27;19908;-71
2023/10/11 11:42:18;;;;;;;;;;;19.70;92.80;;;;;;5113320;27;19908;-72
2023/10/11 11:44:47;;;;;;;;;;;19.80;92.90;;;;;;5116515;27;19912;-71
2023/10/11 11:47:13;;;;;;;;;;;19.90;92.80;;;;;;5119356;27;20595;-72
2023/10/11 11:49:38;;;;;;;;;;;19.90;92.80;;;;;;5119680;27;19999;-73
2023/10/11 11:52:04;;;;;;;;;;;20.00;92.70;;;;;;5111153;28;20403;-72
2023/10/11 11:54:29;;;;;;;;;;;20.00;92.90;;;;;;5111614;28;19921;-71
2023/10/11 11:56:55;;;;;;;;;;;20.10;93.00;;;;;;5111141;28;19946;-72
2023/10/11 11:59:22;;;;;;;;;;;20.10;92.90;;;;;;5117950;27;19907;-72
2023/10/11 12:01:49;;;;;;;;;;;20.10;93.00;;;;;;5111140;28;19912;-71
2023/10/11 12:04:29;;;;;;;;;;;20.20;93.00;;;;;;5103821;27;20084;-72
2023/10/11 12:06:58;;;;;;;;;;;20.30;92.80;;;;;;5112068;27;19915;-73
2023/10/11 12:09:31;;;;;;;;;;;20.30;92.90;;;;;;5104478;28;20398;-72
2023/10/11 12:12:02;;;;;;;;;;;20.40;93.30;;;;;;5097631;27;19912;-72
2023/10/11 12:14:28;;;;;;;;;;;20.40;92.90;;;;;;5097634;28;20249;-72
2023/10/11 12:16:55;;;;;;;;;;;20.40;92.90;;;;;;5114243;27;19937;-71
2023/10/11 12:19:20;;;;;;;;;;;20.50;93.30;;;;;;5121073;27;19912;-72
2023/10/11 12:21:46;;;;;;;;;;;20.50;93.30;;;;;;5115492;27;19919;-72
2023/10/11 12:24:12;;;;;;;;;;;20.50;93.20;;;;;;5110740;27;19912;-71
2023/10/11 12:26:41;;;;;;;;;;;20.60;93.30;;;;;;5102490;27;20293;-71
2023/10/11 12:29:09;;;;;;;;;;;20.60;93.20;;;;;;5106951;27;19922;-72
2023/10/11 12:31:38;;;;;;;;;;;20.60;93.30;;;;;;5116712;27;19908;-72
2023/10/11 12:34:10;;;;;;;;;;;20.70;93.30;;;;;;5108801;27;19912;-72
2023/10/11 12:36:39;;;;;;;;;;;20.70;93.20;;;;;;5117162;27;20296;-71
2023/10/11 12:39:20;;;;;;;;;;;20.70;93.30;;;;;;5110451;27;19912;-72
2023/10/11 12:41:49;;;;;;;;;;;20.70;92.80;;;;;;5114608;27;19919;-72
2023/10/11 12:44:15;;;;;;;;;;;20.80;92.70;;;;;;5108288;28;19914;-72
2023/10/11 12:46:41;;;;;;;;;;;20.80;92.80;;;;;;5115752;27;19911;-72
2023/10/11 12:49:12;;;;;;;;;;;20.90;93.00;;;;;;5111300;27;20597;-72
2023/10/11 12:51:42;;;;;;;;;;;20.90;93.00;;;;;;5117110;27;20413;-72
2023/10/11 12:54:11;;;;;;;;;;;20.90;93.20;;;;;;5109357;28;19912;-72
2023/10/11 12:56:37;;;;;;;;;;;20.90;93.20;;;;;;5109985;28;20502;-71
2023/10/11 12:59:06;;;;;;;;;;;21.00;92.90;;;;;;5118159;27;20531;-71
2023/10/11 13:01:40;;;;;;;;;;;21.00;93.30;;;;;;5109708;28;20003;-72
2023/10/11 13:04:08;;;;;;;;;;;21.00;93.00;;;;;;5109701;28;20015;-71
2023/10/11 13:06:36;;;;;;;;;;;21.10;93.10;;;;;;5117313;27;19918;-72
2023/10/11 13:09:03;;;;;;;;;;;21.10;93.10;;;;;;5122402;27;19917;-72
2023/10/11 13:11:31;;;;;;;;;;;21.10;93.00;;;;;;5107520;28;19953;-72
2023/10/11 13:14:05;;;;;;;;;;;21.20;92.80;;;;;;5117934;27;20004;-72
2023/10/11 13:16:32;;;;;;;;;;;21.20;93.00;;;;;;5109867;28;19949;-72
2023/10/11 13:18:59;;;;;;;;;;;21.20;92.90;;;;;;5109593;28;20353;-72
2023/10/11 13:21:28;;;;;;;;;;;21.20;93.10;;;;;;5113072;27;19908;-71
2023/10/11 13:23:53;;;;;;;;;;;21.20;93.00;;;;;;5121716;27;19916;-72
2023/10/11 13:26:19;;;;;;;;;;;21.20;93.10;;;;;;5110684;27;19947;-72
2023/10/11 13:28:48;;;;;;;;;;;21.20;93.00;;;;;;5117143;27;19924;-73
2023/10/11 13:31:17;;;;;;;;;;;21.30;93.00;;;;;;5116691;27;20143;-72
2023/10/11 13:33:42;;;;;;;;;;;21.30;93.00;;;;;;5105320;27;20006;-72
2023/10/11 13:36:08;;;;;;;;;;;21.30;92.90;;;;;;5106617;28;20022;-72
2023/10/11 13:38:34;;;;;;;;;;;21.30;93.00;;;;;;5122693;27;20001;-72
2023/10/11 13:41:00;;;;;;;;;;;21.30;92.80;;;;;;5121356;27;19908;-72
2023/10/11 13:43:26;;;;;;;;;;;21.30;92.70;;;;;;5107873;28;19912;-72
2023/10/11 13:46:01;;;;;;;;;;;21.40;92.90;;;;;;5108395;28;19954;-73
2023/10/11 13:48:33;;;;;;;;;;;21.40;92.30;;;;;;5119350;28;19981;-72
2023/10/11 13:51:03;;;;;;;;;;;21.40;92.50;;;;;;5113285;27;19912;-72
2023/10/11 13:53:28;;;;;;;;;;;21.40;92.90;;;;;;5109625;28;19940;-72
2023/10/11 13:55:54;;;;;;;;;;;21.40;92.70;;;;;;5107472;28;19947;-72
2023/10/11 13:58:20;;;;;;;;;;;21.40;92.90;;;;;;5111490;28;19912;-72
2023/10/11 14:05:44;;;;;;;;;;;21.40;92.70;;;;;;5108197;28;19919;-73
2023/10/11 14:08:25;;;;;;;;;;;21.40;92.50;;;;;;5106494;28;19922;-73
2023/10/11 14:10:51;;;;;;;;;;;21.40;92.60;;;;;;5108696;28;19912;-72
2023/10/11 14:13:24;;;;;;;;;;;21.40;92.90;;;;;;5116348;28;19919;-72
2023/10/11 14:15:58;;;;;;;;;;;21.40;92.70;;;;;;5116850;27;19912;-72
2023/10/11 14:18:27;;;;;;;;;;;21.30;92.80;;;;;;5116777;27;19912;-72
2023/10/11 14:20:56;;;;;;;;;;;21.40;92.90;;;;;;5115830;28;20293;-72
2023/10/11 14:23:27;;;;;;;;;;;21.40;92.90;;;;;;5109071;27;20303;-72
2023/10/11 14:25:56;;;;;;;;;;;21.30;92.80;;;;;;5121180;27;19918;-72
2023/10/11 14:28:23;;;;;;;;;;;21.40;92.90;;;;;;5108119;28;20380;-72
2023/10/11 14:30:52;;;;;;;;;;;21.40;93.00;;;;;;5115819;27;19912;-72
2023/10/11 14:33:18;;;;;;;;;;;21.30;93.00;;;;;;5104974;27;19954;-72
2023/10/11 14:35:49;;;;;;;;;;;21.30;93.00;;;;;;5117422;27;19918;-72
2023/10/11 14:38:16;;;;;;;;;;;21.30;93.10;;;;;;5121783;27;20072;-72
2023/10/11 14:40:43;;;;;;;;;;;21.30;93.10;;;;;;5132316;27;20006;-72
2023/10/11 14:43:11;;;;;;;;;;;21.20;93.10;;;;;;5122524;27;20296;-72
2023/10/11 14:45:37;;;;;;;;;;;21.20;92.90;;;;;;5117235;27;20585;-72
2023/10/11 14:48:08;;;;;;;;;;;21.20;93.20;;;;;;5131516;27;19915;-72
2023/10/11 14:50:34;;;;;;;;;;;21.20;93.10;;;;;;5120099;27;20399;-72
2023/10/11 14:53:00;;;;;;;;;;;21.20;93.50;;;;;;5110214;28;19908;-72
2023/10/11 14:55:28;;;;;;;;;;;21.20;93.30;;;;;;5104739;27;19927;-73
2023/10/11 14:57:53;;;;;;;;;;;21.20;93.30;;;;;;5127132;27;19993;-72
2023/10/11 15:00:22;;;;;;;;;;;21.20;93.30;;;;;;5120670;27;19994;-72
2023/10/11 15:02:48;;;;;;;;;;;21.20;93.40;;;;;;5116960;27;19923;-72
2023/10/11 15:05:16;;;;;;;;;;;21.20;93.40;;;;;;5112886;27;19919;-72
2023/10/11 15:07:42;;;;;;;;;;;21.20;93.40;;;;;;5125411;27;19946;-72
2023/10/11 15:10:11;;;;;;;;;;;21.20;93.30;;;;;;5112759;27;19926;-72
2023/10/11 15:12:41;;;;;;;;;;;21.20;93.40;;;;;;5111011;28;19912;-72
2023/10/11 15:15:10;;;;;;;;;;;21.20;93.30;;;;;;5113753;27;19907;-72
2023/10/11 15:17:36;;;;;;;;;;;21.20;93.30;;;;;;5113169;27;19911;-72
2023/10/11 15:20:03;;;;;;;;;;;21.20;93.30;;;;;;5110741;28;19934;-72
2023/10/11 15:22:31;;;;;;;;;;;21.20;93.40;;;;;;5106980;28;19908;-72